sensor_id;sensor_type;location;lat;lon;timestamp;temperature;humidity
67820;DHT22;54618;52.018;5.576;2022-11-15T00:01:47;16.50;55.50
67820;DHT22;54618;52.018;5.576;2022-11-15T00:04:13;16.50;55.50
67820;DHT22;54618;52.018;5.576;2022-11-15T00:06:38;16.50;55.50
67820;DHT22;54618;52.018;5.576;2022-11-15T00:09:04;16.50;55.60
67820;DHT22;54618;52.018;5.576;2022-11-15T00:11:29;16.50;55.50
67820;DHT22;54618;52.018;5.576;2022-11-15T00:13:56;16.50;55.60
67820;DHT22;54618;52.018;5.576;2022-11-15T00:16:22;16.50;55.60
67820;DHT22;54618;52.018;5.576;2022-11-15T00:18:48;16.50;55.60
67820;DHT22;54618;52.018;5.576;2022-11-15T00:21:14;16.60;55.60
67820;DHT22;54618;52.018;5.576;2022-11-15T00:23:40;16.60;55.70
67820;DHT22;54618;52.018;5.576;2022-11-15T00:26:06;16.50;56.00
67820;DHT22;54618;52.018;5.576;2022-11-15T00:28:32;16.50;55.60
67820;DHT22;54618;52.018;5.576;2022-11-15T00:31:06;16.50;55.60
67820;DHT22;54618;52.018;5.576;2022-11-15T00:33:32;16.50;55.70
67820;DHT22;54618;52.018;5.576;2022-11-15T00:36:04;16.50;55.70
67820;DHT22;54618;52.018;5.576;2022-11-15T00:38:32;16.50;55.70
67820;DHT22;54618;52.018;5.576;2022-11-15T00:40:58;16.50;55.70
67820;DHT22;54618;52.018;5.576;2022-11-15T00:43:23;16.50;55.70
67820;DHT22;54618;52.018;5.576;2022-11-15T00:45:48;16.50;55.70
67820;DHT22;54618;52.018;5.576;2022-11-15T00:48:14;16.50;55.80
67820;DHT22;54618;52.018;5.576;2022-11-15T00:50:39;16.50;55.70
67820;DHT22;54618;52.018;5.576;2022-11-15T00:53:05;16.50;55.80
67820;DHT22;54618;52.018;5.576;2022-11-15T00:55:30;16.50;55.80
67820;DHT22;54618;52.018;5.576;2022-11-15T00:57:56;16.50;55.90
67820;DHT22;54618;52.018;5.576;2022-11-15T01:00:22;16.50;55.80
67820;DHT22;54618;52.018;5.576;2022-11-15T01:02:47;16.50;55.90
67820;DHT22;54618;52.018;5.576;2022-11-15T01:05:13;16.50;55.80
67820;DHT22;54618;52.018;5.576;2022-11-15T01:07:38;16.50;55.90
67820;DHT22;54618;52.018;5.576;2022-11-15T01:10:05;16.50;55.90
67820;DHT22;54618;52.018;5.576;2022-11-15T01:12:31;16.50;55.90
67820;DHT22;54618;52.018;5.576;2022-11-15T01:14:57;16.50;55.90
67820;DHT22;54618;52.018;5.576;2022-11-15T01:17:22;16.50;55.90
67820;DHT22;54618;52.018;5.576;2022-11-15T01:19:48;16.50;55.90
67820;DHT22;54618;52.018;5.576;2022-11-15T01:22:13;16.50;55.90
67820;DHT22;54618;52.018;5.576;2022-11-15T01:24:39;16.50;55.90
67820;DHT22;54618;52.018;5.576;2022-11-15T01:27:04;16.50;55.90
67820;DHT22;54618;52.018;5.576;2022-11-15T01:29:30;16.50;56.00
67820;DHT22;54618;52.018;5.576;2022-11-15T01:31:56;16.50;56.00
67820;DHT22;54618;52.018;5.576;2022-11-15T01:34:21;16.50;56.00
67820;DHT22;54618;52.018;5.576;2022-11-15T01:36:47;16.50;56.00
67820;DHT22;54618;52.018;5.576;2022-11-15T01:39:12;16.50;56.00
67820;DHT22;54618;52.018;5.576;2022-11-15T01:41:38;16.50;56.00
67820;DHT22;54618;52.018;5.576;2022-11-15T01:47:11;16.50;56.10
67820;DHT22;54618;52.018;5.576;2022-11-15T01:49:38;16.50;56.10
67820;DHT22;54618;52.018;5.576;2022-11-15T01:52:07;16.50;56.10
67820;DHT22;54618;52.018;5.576;2022-11-15T01:54:34;16.50;56.10
67820;DHT22;54618;52.018;5.576;2022-11-15T01:57:04;16.50;56.10
67820;DHT22;54618;52.018;5.576;2022-11-15T01:59:32;16.50;56.10
67820;DHT22;54618;52.018;5.576;2022-11-15T02:01:58;16.50;56.10
67820;DHT22;54618;52.018;5.576;2022-11-15T02:04:29;16.50;56.10
67820;DHT22;54618;52.018;5.576;2022-11-15T02:06:56;16.50;56.40
67820;DHT22;54618;52.018;5.576;2022-11-15T02:09:22;16.50;56.20
67820;DHT22;54618;52.018;5.576;2022-11-15T02:11:48;16.50;56.20
67820;DHT22;54618;52.018;5.576;2022-11-15T02:14:16;16.50;56.20
67820;DHT22;54618;52.018;5.576;2022-11-15T02:17:09;16.50;56.20
67820;DHT22;54618;52.018;5.576;2022-11-15T02:28:28;16.50;56.40
67820;DHT22;54618;52.018;5.576;2022-11-15T02:31:09;16.50;56.40
67820;DHT22;54618;52.018;5.576;2022-11-15T02:33:53;16.50;56.40
67820;DHT22;54618;52.018;5.576;2022-11-15T02:36:46;16.50;56.40
67820;DHT22;54618;52.018;5.576;2022-11-15T02:42:02;16.50;56.40
67820;DHT22;54618;52.018;5.576;2022-11-15T02:44:34;16.40;56.40
67820;DHT22;54618;52.018;5.576;2022-11-15T02:47:05;16.50;56.40
67820;DHT22;54618;52.018;5.576;2022-11-15T02:49:45;16.50;56.50
67820;DHT22;54618;52.018;5.576;2022-11-15T02:52:18;16.50;56.50
67820;DHT22;54618;52.018;5.576;2022-11-15T02:54:57;16.50;56.50
67820;DHT22;54618;52.018;5.576;2022-11-15T03:00:35;16.50;56.60
67820;DHT22;54618;52.018;5.576;2022-11-15T03:11:44;16.40;56.60
67820;DHT22;54618;52.018;5.576;2022-11-15T03:14:21;16.50;56.60
67820;DHT22;54618;52.018;5.576;2022-11-15T03:16:50;16.40;56.60
67820;DHT22;54618;52.018;5.576;2022-11-15T03:19:29;16.40;56.60
67820;DHT22;54618;52.018;5.576;2022-11-15T03:21:58;16.50;56.80
67820;DHT22;54618;52.018;5.576;2022-11-15T03:24:25;16.40;56.60
67820;DHT22;54618;52.018;5.576;2022-11-15T03:26:53;16.40;56.70
67820;DHT22;54618;52.018;5.576;2022-11-15T03:29:23;16.40;56.70
67820;DHT22;54618;52.018;5.576;2022-11-15T03:31:57;16.40;56.70
67820;DHT22;54618;52.018;5.576;2022-11-15T03:34:31;16.40;56.70
67820;DHT22;54618;52.018;5.576;2022-11-15T03:36:57;16.40;56.80
67820;DHT22;54618;52.018;5.576;2022-11-15T03:39:23;16.50;56.80
67820;DHT22;54618;52.018;5.576;2022-11-15T03:42:18;16.40;56.80
67820;DHT22;54618;52.018;5.576;2022-11-15T03:44:52;16.40;56.90
67820;DHT22;54618;52.018;5.576;2022-11-15T03:47:39;16.40;56.90
67820;DHT22;54618;52.018;5.576;2022-11-15T03:50:13;16.40;57.00
67820;DHT22;54618;52.018;5.576;2022-11-15T03:52:40;16.40;57.00
67820;DHT22;54618;52.018;5.576;2022-11-15T03:55:09;16.40;57.00
67820;DHT22;54618;52.018;5.576;2022-11-15T03:57:36;16.40;57.00
67820;DHT22;54618;52.018;5.576;2022-11-15T04:00:02;16.40;57.00
67820;DHT22;54618;52.018;5.576;2022-11-15T04:02:28;16.40;57.00
67820;DHT22;54618;52.018;5.576;2022-11-15T04:04:53;16.40;57.00
67820;DHT22;54618;52.018;5.576;2022-11-15T04:07:19;16.40;57.10
67820;DHT22;54618;52.018;5.576;2022-11-15T04:09:44;16.40;57.10
67820;DHT22;54618;52.018;5.576;2022-11-15T04:12:40;16.40;57.10
67820;DHT22;54618;52.018;5.576;2022-11-15T04:15:10;16.40;57.20
67820;DHT22;54618;52.018;5.576;2022-11-15T04:17:43;16.40;57.20
67820;DHT22;54618;52.018;5.576;2022-11-15T04:20:17;16.40;57.20
67820;DHT22;54618;52.018;5.576;2022-11-15T04:23:04;16.40;57.20
67820;DHT22;54618;52.018;5.576;2022-11-15T04:25:54;16.40;57.20
67820;DHT22;54618;52.018;5.576;2022-11-15T04:28:20;16.40;57.20
67820;DHT22;54618;52.018;5.576;2022-11-15T04:30:45;16.40;57.40
67820;DHT22;54618;52.018;5.576;2022-11-15T04:33:11;16.40;57.30
67820;DHT22;54618;52.018;5.576;2022-11-15T04:35:36;16.40;57.30
67820;DHT22;54618;52.018;5.576;2022-11-15T04:38:03;16.40;57.30
67820;DHT22;54618;52.018;5.576;2022-11-15T04:40:29;16.40;57.30
67820;DHT22;54618;52.018;5.576;2022-11-15T04:42:55;16.40;57.40
67820;DHT22;54618;52.018;5.576;2022-11-15T04:45:21;16.40;57.40
67820;DHT22;54618;52.018;5.576;2022-11-15T04:47:47;16.40;57.40
67820;DHT22;54618;52.018;5.576;2022-11-15T04:50:13;16.40;57.40
67820;DHT22;54618;52.018;5.576;2022-11-15T04:52:43;16.40;57.40
67820;DHT22;54618;52.018;5.576;2022-11-15T04:55:10;16.40;57.50
67820;DHT22;54618;52.018;5.576;2022-11-15T04:57:37;16.40;57.50
67820;DHT22;54618;52.018;5.576;2022-11-15T05:00:10;16.40;57.50
67820;DHT22;54618;52.018;5.576;2022-11-15T05:02:36;16.40;57.50
67820;DHT22;54618;52.018;5.576;2022-11-15T05:05:20;16.40;57.50
67820;DHT22;54618;52.018;5.576;2022-11-15T05:07:46;16.40;57.60
67820;DHT22;54618;52.018;5.576;2022-11-15T05:10:11;16.40;57.60
67820;DHT22;54618;52.018;5.576;2022-11-15T05:12:37;16.40;57.60
67820;DHT22;54618;52.018;5.576;2022-11-15T05:15:03;16.40;57.60
67820;DHT22;54618;52.018;5.576;2022-11-15T05:17:28;16.40;57.60
67820;DHT22;54618;52.018;5.576;2022-11-15T05:19:54;16.40;57.60
67820;DHT22;54618;52.018;5.576;2022-11-15T05:22:20;16.40;57.60
67820;DHT22;54618;52.018;5.576;2022-11-15T05:24:45;16.40;57.70
67820;DHT22;54618;52.018;5.576;2022-11-15T05:27:11;16.40;57.70
67820;DHT22;54618;52.018;5.576;2022-11-15T05:29:36;16.40;57.70
67820;DHT22;54618;52.018;5.576;2022-11-15T05:32:04;16.40;57.70
67820;DHT22;54618;52.018;5.576;2022-11-15T05:34:30;16.40;57.70
67820;DHT22;54618;52.018;5.576;2022-11-15T05:36:56;16.40;57.70
67820;DHT22;54618;52.018;5.576;2022-11-15T05:39:22;16.40;57.80
67820;DHT22;54618;52.018;5.576;2022-11-15T05:41:59;16.40;57.80
67820;DHT22;54618;52.018;5.576;2022-11-15T05:44:27;16.40;57.80
67820;DHT22;54618;52.018;5.576;2022-11-15T05:46:54;16.50;57.90
67820;DHT22;54618;52.018;5.576;2022-11-15T05:49:24;16.40;57.80
67820;DHT22;54618;52.018;5.576;2022-11-15T05:51:51;16.40;57.90
67820;DHT22;54618;52.018;5.576;2022-11-15T05:54:18;16.40;57.90
67820;DHT22;54618;52.018;5.576;2022-11-15T05:56:45;16.40;57.90
67820;DHT22;54618;52.018;5.576;2022-11-15T05:59:11;16.40;57.90
67820;DHT22;54618;52.018;5.576;2022-11-15T06:01:37;16.40;57.90
67820;DHT22;54618;52.018;5.576;2022-11-15T06:04:03;16.40;57.90
67820;DHT22;54618;52.018;5.576;2022-11-15T06:06:29;16.40;58.00
67820;DHT22;54618;52.018;5.576;2022-11-15T06:08:55;16.40;58.00
67820;DHT22;54618;52.018;5.576;2022-11-15T06:11:20;16.40;58.00
67820;DHT22;54618;52.018;5.576;2022-11-15T06:13:46;16.40;58.00
67820;DHT22;54618;52.018;5.576;2022-11-15T06:16:11;16.40;58.00
67820;DHT22;54618;52.018;5.576;2022-11-15T06:18:37;16.40;58.60
67820;DHT22;54618;52.018;5.576;2022-11-15T06:21:03;16.40;58.10
67820;DHT22;54618;52.018;5.576;2022-11-15T06:23:32;16.40;58.10
67820;DHT22;54618;52.018;5.576;2022-11-15T06:25:58;16.40;58.10
67820;DHT22;54618;52.018;5.576;2022-11-15T06:28:24;16.40;58.10
67820;DHT22;54618;52.018;5.576;2022-11-15T06:30:50;16.40;58.20
67820;DHT22;54618;52.018;5.576;2022-11-15T06:33:15;16.40;58.20
67820;DHT22;54618;52.018;5.576;2022-11-15T06:35:41;16.50;58.20
67820;DHT22;54618;52.018;5.576;2022-11-15T06:38:08;16.50;58.90
67820;DHT22;54618;52.018;5.576;2022-11-15T06:40:35;16.40;58.20
67820;DHT22;54618;52.018;5.576;2022-11-15T06:43:02;16.40;58.30
67820;DHT22;54618;52.018;5.576;2022-11-15T06:45:28;16.40;58.20
67820;DHT22;54618;52.018;5.576;2022-11-15T06:47:54;16.40;58.30
67820;DHT22;54618;52.018;5.576;2022-11-15T06:50:19;16.40;58.30
67820;DHT22;54618;52.018;5.576;2022-11-15T06:52:45;16.40;58.30
67820;DHT22;54618;52.018;5.576;2022-11-15T06:55:10;16.40;58.30
67820;DHT22;54618;52.018;5.576;2022-11-15T06:57:36;16.40;58.30
67820;DHT22;54618;52.018;5.576;2022-11-15T07:00:05;16.40;58.30
67820;DHT22;54618;52.018;5.576;2022-11-15T07:02:31;16.40;58.40
67820;DHT22;54618;52.018;5.576;2022-11-15T07:04:56;16.40;58.40
67820;DHT22;54618;52.018;5.576;2022-11-15T07:07:22;16.40;58.40
67820;DHT22;54618;52.018;5.576;2022-11-15T07:09:48;16.40;58.50
67820;DHT22;54618;52.018;5.576;2022-11-15T07:12:13;16.50;58.50
67820;DHT22;54618;52.018;5.576;2022-11-15T07:14:39;16.40;58.50
67820;DHT22;54618;52.018;5.576;2022-11-15T07:17:05;16.40;58.50
67820;DHT22;54618;52.018;5.576;2022-11-15T07:19:30;16.40;58.50
67820;DHT22;54618;52.018;5.576;2022-11-15T07:21:56;16.40;58.50
67820;DHT22;54618;52.018;5.576;2022-11-15T07:24:23;16.40;58.50
67820;DHT22;54618;52.018;5.576;2022-11-15T07:26:48;16.40;58.50
67820;DHT22;54618;52.018;5.576;2022-11-15T07:29:14;16.40;58.60
67820;DHT22;54618;52.018;5.576;2022-11-15T07:31:39;16.40;58.60
67820;DHT22;54618;52.018;5.576;2022-11-15T07:34:05;16.40;58.60
67820;DHT22;54618;52.018;5.576;2022-11-15T07:36:30;16.40;58.60
67820;DHT22;54618;52.018;5.576;2022-11-15T07:38:56;16.40;58.60
67820;DHT22;54618;52.018;5.576;2022-11-15T07:41:22;16.40;58.60
67820;DHT22;54618;52.018;5.576;2022-11-15T07:43:47;16.40;58.60
67820;DHT22;54618;52.018;5.576;2022-11-15T07:46:16;16.40;58.60
67820;DHT22;54618;52.018;5.576;2022-11-15T07:48:41;16.40;58.70
67820;DHT22;54618;52.018;5.576;2022-11-15T07:51:09;16.50;58.80
67820;DHT22;54618;52.018;5.576;2022-11-15T07:53:35;16.40;58.70
67820;DHT22;54618;52.018;5.576;2022-11-15T07:56:00;16.50;58.80
67820;DHT22;54618;52.018;5.576;2022-11-15T07:58:26;16.50;58.70
67820;DHT22;54618;52.018;5.576;2022-11-15T08:00:52;16.40;58.70
67820;DHT22;54618;52.018;5.576;2022-11-15T08:03:17;16.40;58.80
67820;DHT22;54618;52.018;5.576;2022-11-15T08:05:43;16.50;58.80
67820;DHT22;54618;52.018;5.576;2022-11-15T08:08:14;16.50;58.80
67820;DHT22;54618;52.018;5.576;2022-11-15T08:10:40;16.50;58.80
67820;DHT22;54618;52.018;5.576;2022-11-15T08:13:08;16.50;58.80
67820;DHT22;54618;52.018;5.576;2022-11-15T08:15:35;16.50;58.80
67820;DHT22;54618;52.018;5.576;2022-11-15T08:18:09;16.50;58.80
67820;DHT22;54618;52.018;5.576;2022-11-15T08:20:35;16.50;58.80
67820;DHT22;54618;52.018;5.576;2022-11-15T08:23:02;16.50;58.80
67820;DHT22;54618;52.018;5.576;2022-11-15T08:25:31;16.50;58.80
67820;DHT22;54618;52.018;5.576;2022-11-15T08:27:59;16.50;58.80
67820;DHT22;54618;52.018;5.576;2022-11-15T08:30:25;16.50;58.80
67820;DHT22;54618;52.018;5.576;2022-11-15T08:32:52;16.50;58.80
67820;DHT22;54618;52.018;5.576;2022-11-15T08:35:19;16.50;58.90
67820;DHT22;54618;52.018;5.576;2022-11-15T08:37:45;16.50;58.80
67820;DHT22;54618;52.018;5.576;2022-11-15T08:40:10;16.50;58.90
67820;DHT22;54618;52.018;5.576;2022-11-15T08:42:36;16.50;58.80
67820;DHT22;54618;52.018;5.576;2022-11-15T08:45:03;16.50;58.90
67820;DHT22;54618;52.018;5.576;2022-11-15T08:47:29;16.50;58.90
67820;DHT22;54618;52.018;5.576;2022-11-15T08:49:54;16.50;58.90
67820;DHT22;54618;52.018;5.576;2022-11-15T08:52:20;16.50;58.90
67820;DHT22;54618;52.018;5.576;2022-11-15T08:54:46;16.50;58.90
67820;DHT22;54618;52.018;5.576;2022-11-15T08:57:11;16.60;59.00
67820;DHT22;54618;52.018;5.576;2022-11-15T08:59:37;16.50;59.00
67820;DHT22;54618;52.018;5.576;2022-11-15T09:02:03;16.50;59.00
67820;DHT22;54618;52.018;5.576;2022-11-15T09:04:29;16.50;59.00
67820;DHT22;54618;52.018;5.576;2022-11-15T09:06:54;16.60;59.10
67820;DHT22;54618;52.018;5.576;2022-11-15T09:09:20;16.50;59.00
67820;DHT22;54618;52.018;5.576;2022-11-15T09:11:45;16.50;59.00
67820;DHT22;54618;52.018;5.576;2022-11-15T09:14:12;16.50;59.00
67820;DHT22;54618;52.018;5.576;2022-11-15T09:16:38;16.50;59.00
67820;DHT22;54618;52.018;5.576;2022-11-15T09:19:03;16.60;59.10
67820;DHT22;54618;52.018;5.576;2022-11-15T09:21:29;16.50;59.10
67820;DHT22;54618;52.018;5.576;2022-11-15T09:23:55;16.50;59.10
67820;DHT22;54618;52.018;5.576;2022-11-15T09:26:21;16.60;59.10
67820;DHT22;54618;52.018;5.576;2022-11-15T09:28:47;16.50;59.10
67820;DHT22;54618;52.018;5.576;2022-11-15T09:31:12;16.50;59.10
67820;DHT22;54618;52.018;5.576;2022-11-15T09:33:38;16.60;59.20
67820;DHT22;54618;52.018;5.576;2022-11-15T09:36:06;16.50;59.10
67820;DHT22;54618;52.018;5.576;2022-11-15T09:38:33;16.50;59.20
67820;DHT22;54618;52.018;5.576;2022-11-15T09:49:17;16.50;59.40
67820;DHT22;54618;52.018;5.576;2022-11-15T09:51:45;16.50;59.30
67820;DHT22;54618;52.018;5.576;2022-11-15T09:54:16;16.50;59.30
67820;DHT22;54618;52.018;5.576;2022-11-15T09:56:44;16.50;59.40
67820;DHT22;54618;52.018;5.576;2022-11-15T09:59:39;16.50;59.40
67820;DHT22;54618;52.018;5.576;2022-11-15T10:03:06;16.50;59.40
67820;DHT22;54618;52.018;5.576;2022-11-15T10:05:01;16.50;59.40
67820;DHT22;54618;52.018;5.576;2022-11-15T10:07:34;16.50;59.40
67820;DHT22;54618;52.018;5.576;2022-11-15T10:12:49;16.50;59.50
67820;DHT22;54618;52.018;5.576;2022-11-15T10:15:18;16.50;59.40
67820;DHT22;54618;52.018;5.576;2022-11-15T10:18:07;16.50;59.40
67820;DHT22;54618;52.018;5.576;2022-11-15T10:20:49;16.50;59.50
67820;DHT22;54618;52.018;5.576;2022-11-15T10:23:20;16.50;59.50
67820;DHT22;54618;52.018;5.576;2022-11-15T10:25:47;16.50;59.40
67820;DHT22;54618;52.018;5.576;2022-11-15T10:28:27;16.50;59.50
67820;DHT22;54618;52.018;5.576;2022-11-15T10:30:55;16.50;59.50
67820;DHT22;54618;52.018;5.576;2022-11-15T10:46:33;16.50;59.50
67820;DHT22;54618;52.018;5.576;2022-11-15T10:49:20;16.50;59.50
67820;DHT22;54618;52.018;5.576;2022-11-15T10:51:51;16.50;59.60
67820;DHT22;54618;52.018;5.576;2022-11-15T10:54:34;16.50;59.60
67820;DHT22;54618;52.018;5.576;2022-11-15T10:57:07;16.50;59.50
67820;DHT22;54618;52.018;5.576;2022-11-15T10:59:36;16.50;59.60
67820;DHT22;54618;52.018;5.576;2022-11-15T11:02:09;16.50;59.50
67820;DHT22;54618;52.018;5.576;2022-11-15T11:04:51;16.50;60.00
67820;DHT22;54618;52.018;5.576;2022-11-15T11:07:23;16.50;60.50
67820;DHT22;54618;52.018;5.576;2022-11-15T11:09:57;16.60;60.50
67820;DHT22;54618;52.018;5.576;2022-11-15T11:12:29;16.70;60.40
67820;DHT22;54618;52.018;5.576;2022-11-15T11:14:58;16.80;60.10
67820;DHT22;54618;52.018;5.576;2022-11-15T11:17:43;16.80;60.00
67820;DHT22;54618;52.018;5.576;2022-11-15T11:20:44;16.90;59.90
67820;DHT22;54618;52.018;5.576;2022-11-15T11:28:54;17.10;59.50
67820;DHT22;54618;52.018;5.576;2022-11-15T11:42:41;17.10;59.20
67820;DHT22;54618;52.018;5.576;2022-11-15T11:45:40;17.10;59.10
67820;DHT22;54618;52.018;5.576;2022-11-15T11:48:38;17.20;59.10
67820;DHT22;54618;52.018;5.576;2022-11-15T11:51:32;17.20;59.00
67820;DHT22;54618;52.018;5.576;2022-11-15T11:54:03;17.20;59.00
67820;DHT22;54618;52.018;5.576;2022-11-15T11:56:35;17.10;58.90
67820;DHT22;54618;52.018;5.576;2022-11-15T11:59:28;17.10;58.80
67820;DHT22;54618;52.018;5.576;2022-11-15T12:01:55;17.10;58.80
67820;DHT22;54618;52.018;5.576;2022-11-15T12:04:30;17.10;58.90
67820;DHT22;54618;52.018;5.576;2022-11-15T12:07:13;17.10;58.80
67820;DHT22;54618;52.018;5.576;2022-11-15T12:09:53;17.10;58.80
67820;DHT22;54618;52.018;5.576;2022-11-15T12:15:14;17.10;58.70
67820;DHT22;54618;52.018;5.576;2022-11-15T12:17:41;17.10;58.80
67820;DHT22;54618;52.018;5.576;2022-11-15T12:20:22;17.10;58.80
67820;DHT22;54618;52.018;5.576;2022-11-15T12:23:14;17.10;58.70
67820;DHT22;54618;52.018;5.576;2022-11-15T12:26:05;17.00;58.80
67820;DHT22;54618;52.018;5.576;2022-11-15T12:28:42;17.00;58.60
67820;DHT22;54618;52.018;5.576;2022-11-15T12:33:44;16.90;58.60
67820;DHT22;54618;52.018;5.576;2022-11-15T12:41:18;16.80;58.60
67820;DHT22;54618;52.018;5.576;2022-11-15T12:43:45;16.80;58.70
67820;DHT22;54618;52.018;5.576;2022-11-15T13:02:37;16.70;58.80
67820;DHT22;54618;52.018;5.576;2022-11-15T13:07:56;16.60;58.80
67820;DHT22;54618;52.018;5.576;2022-11-15T13:10:33;16.60;58.70
67820;DHT22;54618;52.018;5.576;2022-11-15T13:13:09;16.60;58.70
67820;DHT22;54618;52.018;5.576;2022-11-15T13:15:54;16.60;58.80
67820;DHT22;54618;52.018;5.576;2022-11-15T13:18:35;16.60;58.80
67820;DHT22;54618;52.018;5.576;2022-11-15T13:21:02;16.60;58.80
67820;DHT22;54618;52.018;5.576;2022-11-15T13:23:55;16.60;58.80
67820;DHT22;54618;52.018;5.576;2022-11-15T13:26:21;16.60;58.80
67820;DHT22;54618;52.018;5.576;2022-11-15T13:28:51;16.60;58.80
67820;DHT22;54618;52.018;5.576;2022-11-15T13:33:45;16.70;58.60
67820;DHT22;54618;52.018;5.576;2022-11-15T13:36:23;16.80;58.60
67820;DHT22;54618;52.018;5.576;2022-11-15T13:39:00;16.90;58.40
67820;DHT22;54618;52.018;5.576;2022-11-15T13:41:28;16.90;58.30
67820;DHT22;54618;52.018;5.576;2022-11-15T13:43:55;17.00;58.30
67820;DHT22;54618;52.018;5.576;2022-11-15T13:46:25;17.00;58.10
67820;DHT22;54618;52.018;5.576;2022-11-15T13:48:58;17.00;58.00
67820;DHT22;54618;52.018;5.576;2022-11-15T13:51:36;17.10;58.00
67820;DHT22;54618;52.018;5.576;2022-11-15T13:54:23;17.10;58.00
67820;DHT22;54618;52.018;5.576;2022-11-15T13:56:54;17.20;57.90
67820;DHT22;54618;52.018;5.576;2022-11-15T14:01:50;17.20;57.80
67820;DHT22;54618;52.018;5.576;2022-11-15T14:04:20;17.20;57.80
67820;DHT22;54618;52.018;5.576;2022-11-15T14:06:50;17.10;57.70
67820;DHT22;54618;52.018;5.576;2022-11-15T14:09:34;17.20;57.70
67820;DHT22;54618;52.018;5.576;2022-11-15T14:12:01;17.20;57.70
67820;DHT22;54618;52.018;5.576;2022-11-15T14:14:29;17.20;57.70
67820;DHT22;54618;52.018;5.576;2022-11-15T14:16:57;17.10;57.70
67820;DHT22;54618;52.018;5.576;2022-11-15T14:22:08;17.10;57.80
67820;DHT22;54618;52.018;5.576;2022-11-15T14:24:34;17.20;57.60
67820;DHT22;54618;52.018;5.576;2022-11-15T14:27:35;17.10;57.50
67820;DHT22;54618;52.018;5.576;2022-11-15T14:30:01;17.10;57.30
67820;DHT22;54618;52.018;5.576;2022-11-15T14:32:37;17.10;57.60
67820;DHT22;54618;52.018;5.576;2022-11-15T14:35:17;17.10;57.70
67820;DHT22;54618;52.018;5.576;2022-11-15T14:37:43;17.00;57.70
67820;DHT22;54618;52.018;5.576;2022-11-15T14:40:13;17.00;57.80
67820;DHT22;54618;52.018;5.576;2022-11-15T14:42:39;16.90;57.80
67820;DHT22;54618;52.018;5.576;2022-11-15T14:45:19;16.90;57.80
67820;DHT22;54618;52.018;5.576;2022-11-15T14:47:45;16.90;57.90
67820;DHT22;54618;52.018;5.576;2022-11-15T14:50:19;16.90;57.90
67820;DHT22;54618;52.018;5.576;2022-11-15T14:52:45;16.80;57.80
67820;DHT22;54618;52.018;5.576;2022-11-15T14:55:30;16.80;57.90
67820;DHT22;54618;52.018;5.576;2022-11-15T14:57:58;16.80;57.90
67820;DHT22;54618;52.018;5.576;2022-11-15T15:00:24;16.80;57.90
67820;DHT22;54618;52.018;5.576;2022-11-15T15:02:52;16.70;57.90
67820;DHT22;54618;52.018;5.576;2022-11-15T15:05:22;16.70;58.00
67820;DHT22;54618;52.018;5.576;2022-11-15T15:07:49;16.70;58.00
67820;DHT22;54618;52.018;5.576;2022-11-15T15:10:15;16.70;58.00
67820;DHT22;54618;52.018;5.576;2022-11-15T15:12:41;16.70;58.00
67820;DHT22;54618;52.018;5.576;2022-11-15T15:15:20;16.70;58.00
67820;DHT22;54618;52.018;5.576;2022-11-15T15:17:46;16.70;58.00
67820;DHT22;54618;52.018;5.576;2022-11-15T15:20:12;16.70;58.00
67820;DHT22;54618;52.018;5.576;2022-11-15T15:22:38;16.60;57.50
67820;DHT22;54618;52.018;5.576;2022-11-15T15:25:20;16.70;57.60
67820;DHT22;54618;52.018;5.576;2022-11-15T15:27:46;16.70;57.50
67820;DHT22;54618;52.018;5.576;2022-11-15T15:30:12;16.80;57.50
67820;DHT22;54618;52.018;5.576;2022-11-15T15:32:37;16.90;57.50
67820;DHT22;54618;52.018;5.576;2022-11-15T15:35:03;16.90;57.30
67820;DHT22;54618;52.018;5.576;2022-11-15T15:37:29;17.00;57.30
67820;DHT22;54618;52.018;5.576;2022-11-15T15:39:58;17.10;57.20
67820;DHT22;54618;52.018;5.576;2022-11-15T15:42:24;17.10;56.80
67820;DHT22;54618;52.018;5.576;2022-11-15T15:44:50;17.00;56.20
67820;DHT22;54618;52.018;5.576;2022-11-15T15:47:19;17.00;55.90
67820;DHT22;54618;52.018;5.576;2022-11-15T15:49:45;17.00;55.90
67820;DHT22;54618;52.018;5.576;2022-11-15T15:52:10;16.90;55.80
67820;DHT22;54618;52.018;5.576;2022-11-15T15:54:37;16.90;55.90
67820;DHT22;54618;52.018;5.576;2022-11-15T15:57:02;16.90;56.10
67820;DHT22;54618;52.018;5.576;2022-11-15T15:59:28;16.90;56.10
67820;DHT22;54618;52.018;5.576;2022-11-15T16:01:54;17.00;56.30
67820;DHT22;54618;52.018;5.576;2022-11-15T16:04:19;17.00;56.10
67820;DHT22;54618;52.018;5.576;2022-11-15T16:06:45;17.00;56.00
67820;DHT22;54618;52.018;5.576;2022-11-15T16:09:15;17.10;56.10
67820;DHT22;54618;52.018;5.576;2022-11-15T16:11:41;17.10;56.10
67820;DHT22;54618;52.018;5.576;2022-11-15T16:14:08;17.10;56.10
67820;DHT22;54618;52.018;5.576;2022-11-15T16:16:34;17.10;56.10
67820;DHT22;54618;52.018;5.576;2022-11-15T16:19:00;17.10;56.20
67820;DHT22;54618;52.018;5.576;2022-11-15T16:21:26;17.10;56.20
67820;DHT22;54618;52.018;5.576;2022-11-15T16:23:53;17.10;56.30
67820;DHT22;54618;52.018;5.576;2022-11-15T16:26:25;17.10;56.30
67820;DHT22;54618;52.018;5.576;2022-11-15T16:28:50;17.10;56.20
67820;DHT22;54618;52.018;5.576;2022-11-15T16:31:16;17.10;56.30
67820;DHT22;54618;52.018;5.576;2022-11-15T16:33:44;17.10;56.30
67820;DHT22;54618;52.018;5.576;2022-11-15T16:36:22;17.10;56.40
67820;DHT22;54618;52.018;5.576;2022-11-15T16:38:49;17.10;56.50
67820;DHT22;54618;52.018;5.576;2022-11-15T16:41:15;17.10;56.40
67820;DHT22;54618;52.018;5.576;2022-11-15T16:43:44;17.10;56.50
67820;DHT22;54618;52.018;5.576;2022-11-15T16:46:18;17.10;56.50
67820;DHT22;54618;52.018;5.576;2022-11-15T16:48:44;17.10;56.50
67820;DHT22;54618;52.018;5.576;2022-11-15T16:51:10;17.10;56.60
67820;DHT22;54618;52.018;5.576;2022-11-15T16:53:35;17.10;56.60
67820;DHT22;54618;52.018;5.576;2022-11-15T16:56:01;17.10;56.70
67820;DHT22;54618;52.018;5.576;2022-11-15T16:58:27;17.10;56.70
67820;DHT22;54618;52.018;5.576;2022-11-15T17:00:54;17.10;56.70
67820;DHT22;54618;52.018;5.576;2022-11-15T17:03:21;17.10;56.80
67820;DHT22;54618;52.018;5.576;2022-11-15T17:05:46;17.10;56.90
67820;DHT22;54618;52.018;5.576;2022-11-15T17:08:12;17.10;56.90
67820;DHT22;54618;52.018;5.576;2022-11-15T17:10:39;17.10;56.90
67820;DHT22;54618;52.018;5.576;2022-11-15T17:13:11;17.10;56.90
67820;DHT22;54618;52.018;5.576;2022-11-15T17:15:38;17.10;57.00
67820;DHT22;54618;52.018;5.576;2022-11-15T17:18:04;17.10;57.00
67820;DHT22;54618;52.018;5.576;2022-11-15T17:20:31;17.00;57.00
67820;DHT22;54618;52.018;5.576;2022-11-15T17:22:56;17.00;57.10
67820;DHT22;54618;52.018;5.576;2022-11-15T17:25:22;17.00;57.10
67820;DHT22;54618;52.018;5.576;2022-11-15T17:27:48;17.00;57.10
67820;DHT22;54618;52.018;5.576;2022-11-15T17:30:14;17.00;57.20